sensor_id;sensor_type;location;lat;lon;timestamp;pressure;altitude;pressure_sealevel;temperature;humidity
68226;BME280;55045;49.410;11.030;2023-03-19T00:00:23;97748.00;;;7.05;100.00
68226;BME280;55045;49.410;11.030;2023-03-19T00:03:26;97749.34;;;7.36;100.00
68226;BME280;55045;49.410;11.030;2023-03-19T00:06:31;97730.16;;;7.21;100.00
68226;BME280;55045;49.410;11.030;2023-03-19T00:09:34;97745.00;;;6.72;100.00
68226;BME280;55045;49.410;11.030;2023-03-19T00:12:41;97749.63;;;6.86;100.00
68226;BME280;55045;49.410;11.030;2023-03-19T00:15:45;97755.50;;;6.68;100.00
68226;BME280;55045;49.410;11.030;2023-03-19T00:18:48;97753.91;;;6.63;100.00
68226;BME280;55045;49.410;11.030;2023-03-19T00:21:53;97757.50;;;6.59;100.00
68226;BME280;55045;49.410;11.030;2023-03-19T00:24:57;97752.28;;;6.61;100.00
68226;BME280;55045;49.410;11.030;2023-03-19T00:28:00;97756.41;;;6.43;100.00
68226;BME280;55045;49.410;11.030;2023-03-19T00:31:08;97764.03;;;6.46;100.00
68226;BME280;55045;49.410;11.030;2023-03-19T00:34:12;97765.31;;;6.58;100.00
68226;BME280;55045;49.410;11.030;2023-03-19T00:37:20;97756.66;;;6.37;100.00
68226;BME280;55045;49.410;11.030;2023-03-19T00:40:24;97773.91;;;6.35;100.00
68226;BME280;55045;49.410;11.030;2023-03-19T00:43:28;97776.03;;;6.24;100.00
68226;BME280;55045;49.410;11.030;2023-03-19T00:46:31;97777.47;;;6.07;100.00
68226;BME280;55045;49.410;11.030;2023-03-19T00:49:35;97783.31;;;6.11;100.00
68226;BME280;55045;49.410;11.030;2023-03-19T00:52:40;97788.94;;;6.22;100.00
68226;BME280;55045;49.410;11.030;2023-03-19T00:55:43;97777.28;;;6.12;100.00
68226;BME280;55045;49.410;11.030;2023-03-19T00:58:47;97781.75;;;6.54;100.00
68226;BME280;55045;49.410;11.030;2023-03-19T01:01:50;97774.88;;;6.31;100.00
68226;BME280;55045;49.410;11.030;2023-03-19T01:04:53;97785.06;;;6.11;100.00
68226;BME280;55045;49.410;11.030;2023-03-19T01:07:58;97786.59;;;5.91;100.00
68226;BME280;55045;49.410;11.030;2023-03-19T01:11:06;97786.66;;;6.15;100.00
68226;BME280;55045;49.410;11.030;2023-03-19T01:14:10;97781.31;;;6.43;100.00
68226;BME280;55045;49.410;11.030;2023-03-19T01:17:13;97777.38;;;6.34;100.00
68226;BME280;55045;49.410;11.030;2023-03-19T01:20:16;97781.19;;;6.24;100.00
68226;BME280;55045;49.410;11.030;2023-03-19T01:23:21;97782.72;;;6.28;100.00
68226;BME280;55045;49.410;11.030;2023-03-19T01:26:24;97785.19;;;6.31;100.00
68226;BME280;55045;49.410;11.030;2023-03-19T01:29:33;97781.91;;;6.27;100.00
68226;BME280;55045;49.410;11.030;2023-03-19T01:32:45;97783.25;;;6.38;100.00
68226;BME280;55045;49.410;11.030;2023-03-19T01:36:14;97779.19;;;6.54;100.00
68226;BME280;55045;49.410;11.030;2023-03-19T01:39:34;97784.97;;;6.14;100.00
68226;BME280;55045;49.410;11.030;2023-03-19T01:42:52;97782.44;;;6.12;100.00
68226;BME280;55045;49.410;11.030;2023-03-19T01:46:22;97776.44;;;6.12;100.00
68226;BME280;55045;49.410;11.030;2023-03-19T01:50:20;97776.22;;;6.18;100.00
68226;BME280;55045;49.410;11.030;2023-03-19T01:53:38;97769.53;;;6.14;100.00
68226;BME280;55045;49.410;11.030;2023-03-19T01:56:57;97740.72;;;6.02;100.00
68226;BME280;55045;49.410;11.030;2023-03-19T02:00:25;97759.22;;;6.14;100.00
68226;BME280;55045;49.410;11.030;2023-03-19T02:03:28;97755.91;;;6.10;100.00
68226;BME280;55045;49.410;11.030;2023-03-19T02:06:45;97753.34;;;6.10;100.00
68226;BME280;55045;49.410;11.030;2023-03-19T02:09:49;97763.56;;;6.12;100.00
68226;BME280;55045;49.410;11.030;2023-03-19T02:12:54;97759.22;;;6.14;100.00
68226;BME280;55045;49.410;11.030;2023-03-19T02:15:58;97755.31;;;6.27;100.00
68226;BME280;55045;49.410;11.030;2023-03-19T02:19:03;97762.50;;;5.94;100.00
68226;BME280;55045;49.410;11.030;2023-03-19T02:22:08;97756.97;;;6.04;100.00
68226;BME280;55045;49.410;11.030;2023-03-19T02:25:15;97773.59;;;5.96;100.00
68226;BME280;55045;49.410;11.030;2023-03-19T02:28:23;97777.81;;;5.72;100.00
68226;BME280;55045;49.410;11.030;2023-03-19T02:31:27;97778.44;;;5.54;100.00
68226;BME280;55045;49.410;11.030;2023-03-19T02:34:37;97778.50;;;5.52;100.00
68226;BME280;55045;49.410;11.030;2023-03-19T02:37:41;97784.72;;;5.45;100.00
68226;BME280;55045;49.410;11.030;2023-03-19T02:40:48;97786.06;;;5.57;100.00
68226;BME280;55045;49.410;11.030;2023-03-19T02:43:55;97783.88;;;5.44;100.00
68226;BME280;55045;49.410;11.030;2023-03-19T02:46:59;97784.75;;;5.70;100.00
68226;BME280;55045;49.410;11.030;2023-03-19T02:50:03;97786.94;;;5.56;100.00
68226;BME280;55045;49.410;11.030;2023-03-19T02:53:06;97786.25;;;5.50;100.00
68226;BME280;55045;49.410;11.030;2023-03-19T02:56:10;97784.66;;;5.73;100.00
68226;BME280;55045;49.410;11.030;2023-03-19T02:59:15;97771.25;;;5.88;100.00
68226;BME280;55045;49.410;11.030;2023-03-19T03:02:19;97794.06;;;5.99;100.00
68226;BME280;55045;49.410;11.030;2023-03-19T03:05:22;97793.47;;;5.91;100.00
68226;BME280;55045;49.410;11.030;2023-03-19T03:08:26;97788.66;;;6.06;100.00
68226;BME280;55045;49.410;11.030;2023-03-19T03:11:30;97786.09;;;6.30;100.00
68226;BME280;55045;49.410;11.030;2023-03-19T03:14:34;97783.13;;;6.41;100.00
68226;BME280;55045;49.410;11.030;2023-03-19T03:17:39;97788.00;;;6.48;100.00
68226;BME280;55045;49.410;11.030;2023-03-19T03:20:43;97785.50;;;6.22;100.00
68226;BME280;55045;49.410;11.030;2023-03-19T03:23:46;97788.34;;;6.39;100.00
68226;BME280;55045;49.410;11.030;2023-03-19T03:26:50;97791.09;;;6.34;100.00
68226;BME280;55045;49.410;11.030;2023-03-19T03:29:55;97792.06;;;6.54;100.00
68226;BME280;55045;49.410;11.030;2023-03-19T03:32:59;97790.97;;;6.14;100.00
68226;BME280;55045;49.410;11.030;2023-03-19T03:36:02;97796.38;;;6.06;100.00
68226;BME280;55045;49.410;11.030;2023-03-19T03:39:06;97805.56;;;6.14;100.00
68226;BME280;55045;49.410;11.030;2023-03-19T03:42:09;97807.06;;;5.96;100.00
68226;BME280;55045;49.410;11.030;2023-03-19T03:45:16;97805.31;;;5.96;100.00
68226;BME280;55045;49.410;11.030;2023-03-19T03:48:19;97805.38;;;5.95;100.00
68226;BME280;55045;49.410;11.030;2023-03-19T03:51:24;97807.78;;;5.99;100.00
68226;BME280;55045;49.410;11.030;2023-03-19T03:54:27;97807.34;;;6.12;100.00
68226;BME280;55045;49.410;11.030;2023-03-19T03:57:30;97818.25;;;6.67;100.00
68226;BME280;55045;49.410;11.030;2023-03-19T04:00:35;97816.41;;;5.98;100.00
68226;BME280;55045;49.410;11.030;2023-03-19T04:03:38;97821.75;;;5.92;100.00
68226;BME280;55045;49.410;11.030;2023-03-19T04:06:42;97813.63;;;6.04;100.00
68226;BME280;55045;49.410;11.030;2023-03-19T04:10:01;97821.38;;;6.28;100.00
68226;BME280;55045;49.410;11.030;2023-03-19T04:13:04;97823.25;;;6.23;100.00
68226;BME280;55045;49.410;11.030;2023-03-19T04:16:09;97826.50;;;6.04;100.00
68226;BME280;55045;49.410;11.030;2023-03-19T04:19:13;97830.44;;;5.88;100.00
68226;BME280;55045;49.410;11.030;2023-03-19T04:22:16;97835.78;;;5.82;100.00
68226;BME280;55045;49.410;11.030;2023-03-19T04:25:20;97834.06;;;5.83;100.00
68226;BME280;55045;49.410;11.030;2023-03-19T04:28:23;97835.59;;;5.88;100.00
68226;BME280;55045;49.410;11.030;2023-03-19T04:34:13;97845.03;;;6.14;100.00
68226;BME280;55045;49.410;11.030;2023-03-19T04:37:17;97836.31;;;5.93;100.00
68226;BME280;55045;49.410;11.030;2023-03-19T04:40:24;97840.09;;;5.82;100.00
68226;BME280;55045;49.410;11.030;2023-03-19T04:43:27;97837.69;;;5.77;100.00
68226;BME280;55045;49.410;11.030;2023-03-19T04:46:32;97845.59;;;5.71;100.00
68226;BME280;55045;49.410;11.030;2023-03-19T04:49:37;97862.97;;;5.64;100.00
68226;BME280;55045;49.410;11.030;2023-03-19T04:52:40;97853.53;;;5.65;100.00
68226;BME280;55045;49.410;11.030;2023-03-19T04:55:45;97846.66;;;6.17;100.00
68226;BME280;55045;49.410;11.030;2023-03-19T04:58:51;97846.56;;;5.95;100.00
68226;BME280;55045;49.410;11.030;2023-03-19T05:01:54;97843.19;;;5.93;100.00
68226;BME280;55045;49.410;11.030;2023-03-19T05:05:00;97850.88;;;5.94;100.00
68226;BME280;55045;49.410;11.030;2023-03-19T05:08:03;97847.88;;;5.80;100.00
68226;BME280;55045;49.410;11.030;2023-03-19T05:11:07;97850.63;;;6.00;100.00
68226;BME280;55045;49.410;11.030;2023-03-19T05:14:26;97840.78;;;5.87;100.00
68226;BME280;55045;49.410;11.030;2023-03-19T05:17:50;97841.47;;;5.93;100.00
68226;BME280;55045;49.410;11.030;2023-03-19T05:20:56;97858.22;;;6.05;100.00
68226;BME280;55045;49.410;11.030;2023-03-19T05:24:01;97869.34;;;6.30;100.00
68226;BME280;55045;49.410;11.030;2023-03-19T05:27:09;97853.69;;;6.12;100.00
68226;BME280;55045;49.410;11.030;2023-03-19T05:30:37;97867.03;;;5.98;100.00
68226;BME280;55045;49.410;11.030;2023-03-19T05:33:53;97867.75;;;6.03;100.00
68226;BME280;55045;49.410;11.030;2023-03-19T05:36:58;97875.09;;;6.14;100.00
68226;BME280;55045;49.410;11.030;2023-03-19T05:40:02;97874.41;;;6.09;100.00
68226;BME280;55045;49.410;11.030;2023-03-19T05:43:06;97867.41;;;5.86;100.00
68226;BME280;55045;49.410;11.030;2023-03-19T05:46:10;97893.97;;;6.14;100.00
68226;BME280;55045;49.410;11.030;2023-03-19T05:49:14;97896.09;;;6.01;100.00
68226;BME280;55045;49.410;11.030;2023-03-19T05:52:19;97904.94;;;6.19;100.00
68226;BME280;55045;49.410;11.030;2023-03-19T05:55:23;97883.19;;;6.03;100.00
68226;BME280;55045;49.410;11.030;2023-03-19T05:58:36;97910.19;;;6.16;100.00
68226;BME280;55045;49.410;11.030;2023-03-19T06:01:40;97908.66;;;6.11;100.00
68226;BME280;55045;49.410;11.030;2023-03-19T06:04:43;97916.47;;;6.32;100.00
68226;BME280;55045;49.410;11.030;2023-03-19T06:07:48;97914.97;;;6.27;100.00
68226;BME280;55045;49.410;11.030;2023-03-19T06:11:09;97916.28;;;6.39;100.00
68226;BME280;55045;49.410;11.030;2023-03-19T06:14:12;97917.72;;;6.47;100.00
68226;BME280;55045;49.410;11.030;2023-03-19T06:17:22;97922.84;;;6.47;100.00
68226;BME280;55045;49.410;11.030;2023-03-19T06:20:25;97928.13;;;6.44;100.00
68226;BME280;55045;49.410;11.030;2023-03-19T06:23:30;97931.16;;;6.55;100.00
68226;BME280;55045;49.410;11.030;2023-03-19T06:26:36;97933.31;;;6.43;100.00
68226;BME280;55045;49.410;11.030;2023-03-19T06:29:46;97933.81;;;6.52;100.00
68226;BME280;55045;49.410;11.030;2023-03-19T06:32:58;97935.38;;;6.58;100.00
68226;BME280;55045;49.410;11.030;2023-03-19T06:36:02;97939.69;;;6.57;100.00
68226;BME280;55045;49.410;11.030;2023-03-19T06:39:08;97941.19;;;6.63;100.00
68226;BME280;55045;49.410;11.030;2023-03-19T06:42:12;97951.34;;;6.68;100.00
68226;BME280;55045;49.410;11.030;2023-03-19T06:45:15;97949.66;;;7.13;100.00
68226;BME280;55045;49.410;11.030;2023-03-19T06:48:20;97955.53;;;6.95;100.00
68226;BME280;55045;49.410;11.030;2023-03-19T06:51:23;97959.94;;;6.91;100.00
68226;BME280;55045;49.410;11.030;2023-03-19T06:54:30;97956.19;;;7.00;100.00
68226;BME280;55045;49.410;11.030;2023-03-19T06:57:33;97968.03;;;7.06;100.00
68226;BME280;55045;49.410;11.030;2023-03-19T07:00:36;97967.78;;;7.12;100.00
68226;BME280;55045;49.410;11.030;2023-03-19T07:03:40;97970.09;;;7.19;100.00
68226;BME280;55045;49.410;11.030;2023-03-19T07:06:43;97978.72;;;7.18;100.00
68226;BME280;55045;49.410;11.030;2023-03-19T07:09:48;97984.13;;;7.36;100.00
68226;BME280;55045;49.410;11.030;2023-03-19T07:12:52;97989.66;;;7.48;100.00
68226;BME280;55045;49.410;11.030;2023-03-19T07:15:55;97999.19;;;7.46;100.00
68226;BME280;55045;49.410;11.030;2023-03-19T07:18:58;98000.41;;;7.60;100.00
68226;BME280;55045;49.410;11.030;2023-03-19T07:22:01;97999.78;;;7.53;100.00
68226;BME280;55045;49.410;11.030;2023-03-19T07:25:07;98008.84;;;7.63;100.00
68226;BME280;55045;49.410;11.030;2023-03-19T07:28:10;98011.22;;;7.69;100.00
68226;BME280;55045;49.410;11.030;2023-03-19T07:31:14;98019.25;;;7.84;100.00
68226;BME280;55045;49.410;11.030;2023-03-19T07:34:17;98017.03;;;7.96;100.00
68226;BME280;55045;49.410;11.030;2023-03-19T07:37:20;98000.63;;;7.75;100.00
68226;BME280;55045;49.410;11.030;2023-03-19T07:40:25;98003.19;;;7.77;100.00
68226;BME280;55045;49.410;11.030;2023-03-19T07:43:29;98032.78;;;8.12;100.00
68226;BME280;55045;49.410;11.030;2023-03-19T07:46:32;98032.47;;;8.20;100.00
68226;BME280;55045;49.410;11.030;2023-03-19T07:49:36;98031.50;;;8.22;100.00
68226;BME280;55045;49.410;11.030;2023-03-19T07:52:39;98028.72;;;8.27;100.00
68226;BME280;55045;49.410;11.030;2023-03-19T07:55:43;98036.06;;;8.37;100.00
68226;BME280;55045;49.410;11.030;2023-03-19T07:58:47;98033.19;;;8.45;100.00
68226;BME280;55045;49.410;11.030;2023-03-19T08:01:50;98039.75;;;8.74;100.00
68226;BME280;55045;49.410;11.030;2023-03-19T08:04:53;98054.72;;;8.46;100.00
68226;BME280;55045;49.410;11.030;2023-03-19T08:07:56;98049.84;;;8.60;100.00
68226;BME280;55045;49.410;11.030;2023-03-19T08:11:01;98053.34;;;8.57;100.00
68226;BME280;55045;49.410;11.030;2023-03-19T08:14:05;98058.88;;;8.70;100.00
68226;BME280;55045;49.410;11.030;2023-03-19T08:17:08;98058.06;;;8.70;100.00
68226;BME280;55045;49.410;11.030;2023-03-19T08:20:13;98063.53;;;8.82;100.00
68226;BME280;55045;49.410;11.030;2023-03-19T08:23:17;98061.19;;;8.76;100.00
68226;BME280;55045;49.410;11.030;2023-03-19T08:26:23;98065.84;;;8.68;100.00
68226;BME280;55045;49.410;11.030;2023-03-19T08:29:27;98075.94;;;8.74;100.00
68226;BME280;55045;49.410;11.030;2023-03-19T08:32:30;98083.69;;;8.74;100.00
68226;BME280;55045;49.410;11.030;2023-03-19T08:35:33;98095.25;;;8.65;100.00
68226;BME280;55045;49.410;11.030;2023-03-19T08:38:37;98096.69;;;8.73;100.00
68226;BME280;55045;49.410;11.030;2023-03-19T08:41:42;98097.59;;;8.72;100.00
68226;BME280;55045;49.410;11.030;2023-03-19T08:44:45;98105.06;;;8.79;100.00
68226;BME280;55045;49.410;11.030;2023-03-19T08:47:49;98118.16;;;8.75;100.00
68226;BME280;55045;49.410;11.030;2023-03-19T08:50:53;98119.78;;;8.55;100.00
68226;BME280;55045;49.410;11.030;2023-03-19T08:53:57;98126.13;;;8.70;100.00
68226;BME280;55045;49.410;11.030;2023-03-19T08:57:02;98118.88;;;8.56;100.00
68226;BME280;55045;49.410;11.030;2023-03-19T09:00:06;98120.69;;;8.54;100.00
68226;BME280;55045;49.410;11.030;2023-03-19T09:03:09;98126.47;;;8.61;100.00
68226;BME280;55045;49.410;11.030;2023-03-19T09:06:13;98126.22;;;8.67;100.00
68226;BME280;55045;49.410;11.030;2023-03-19T09:09:17;98140.47;;;8.77;100.00
68226;BME280;55045;49.410;11.030;2023-03-19T09:12:22;98142.22;;;8.97;100.00
68226;BME280;55045;49.410;11.030;2023-03-19T09:15:25;98128.63;;;8.72;100.00
68226;BME280;55045;49.410;11.030;2023-03-19T09:18:29;98149.41;;;8.90;100.00
68226;BME280;55045;49.410;11.030;2023-03-19T09:21:33;98150.25;;;8.91;100.00
68226;BME280;55045;49.410;11.030;2023-03-19T09:24:37;98153.28;;;8.80;100.00
68226;BME280;55045;49.410;11.030;2023-03-19T09:27:43;98160.41;;;8.95;100.00
68226;BME280;55045;49.410;11.030;2023-03-19T09:30:46;98157.44;;;9.05;100.00
68226;BME280;55045;49.410;11.030;2023-03-19T09:33:50;98149.75;;;9.03;100.00
68226;BME280;55045;49.410;11.030;2023-03-19T09:36:53;98157.19;;;8.90;100.00
68226;BME280;55045;49.410;11.030;2023-03-19T09:39:57;98160.00;;;8.84;100.00
68226;BME280;55045;49.410;11.030;2023-03-19T09:43:15;98163.91;;;9.15;100.00
68226;BME280;55045;49.410;11.030;2023-03-19T09:46:27;98155.63;;;9.27;100.00
68226;BME280;55045;49.410;11.030;2023-03-19T09:49:37;98153.75;;;8.90;100.00
68226;BME280;55045;49.410;11.030;2023-03-19T09:52:43;98152.66;;;9.16;100.00
68226;BME280;55045;49.410;11.030;2023-03-19T09:55:50;98150.28;;;9.11;100.00
68226;BME280;55045;49.410;11.030;2023-03-19T09:58:56;98146.66;;;9.15;100.00
68226;BME280;55045;49.410;11.030;2023-03-19T10:02:15;98144.44;;;9.06;100.00
68226;BME280;55045;49.410;11.030;2023-03-19T10:05:28;98154.09;;;9.03;100.00
68226;BME280;55045;49.410;11.030;2023-03-19T10:08:43;98153.94;;;9.06;100.00
68226;BME280;55045;49.410;11.030;2023-03-19T10:12:01;98154.34;;;9.17;100.00
68226;BME280;55045;49.410;11.030;2023-03-19T10:15:18;98165.06;;;9.28;100.00
68226;BME280;55045;49.410;11.030;2023-03-19T10:18:25;98168.19;;;9.16;100.00
68226;BME280;55045;49.410;11.030;2023-03-19T10:21:32;98182.41;;;9.06;100.00
68226;BME280;55045;49.410;11.030;2023-03-19T10:24:39;98176.09;;;9.13;100.00
68226;BME280;55045;49.410;11.030;2023-03-19T10:27:45;98178.41;;;9.19;100.00
68226;BME280;55045;49.410;11.030;2023-03-19T10:34:27;98168.38;;;9.11;100.00
68226;BME280;55045;49.410;11.030;2023-03-19T10:37:33;98128.59;;;8.93;100.00
68226;BME280;55045;49.410;11.030;2023-03-19T10:40:43;98151.75;;;9.17;100.00
68226;BME280;55045;49.410;11.030;2023-03-19T10:43:53;98136.88;;;9.02;100.00
68226;BME280;55045;49.410;11.030;2023-03-19T10:46:58;98170.53;;;9.22;100.00
68226;BME280;55045;49.410;11.030;2023-03-19T10:50:03;98161.84;;;9.23;100.00
68226;BME280;55045;49.410;11.030;2023-03-19T10:53:28;98160.56;;;9.33;100.00
68226;BME280;55045;49.410;11.030;2023-03-19T10:56:33;98149.22;;;9.36;100.00
68226;BME280;55045;49.410;11.030;2023-03-19T10:59:37;98150.38;;;9.49;100.00
68226;BME280;55045;49.410;11.030;2023-03-19T11:02:46;98138.41;;;9.46;100.00
68226;BME280;55045;49.410;11.030;2023-03-19T11:06:03;98149.50;;;9.69;100.00
68226;BME280;55045;49.410;11.030;2023-03-19T11:09:13;98131.66;;;9.63;100.00
68226;BME280;55045;49.410;11.030;2023-03-19T11:12:23;98106.91;;;9.37;100.00
68226;BME280;55045;49.410;11.030;2023-03-19T11:15:33;98133.34;;;9.64;100.00
68226;BME280;55045;49.410;11.030;2023-03-19T11:18:38;98132.97;;;9.92;100.00
68226;BME280;55045;49.410;11.030;2023-03-19T11:21:53;98133.00;;;9.90;100.00
68226;BME280;55045;49.410;11.030;2023-03-19T11:25:02;98124.34;;;9.72;100.00
68226;BME280;55045;49.410;11.030;2023-03-19T11:28:17;98115.50;;;9.76;100.00
68226;BME280;55045;49.410;11.030;2023-03-19T11:31:27;98116.59;;;9.91;100.00
68226;BME280;55045;49.410;11.030;2023-03-19T11:34:40;98106.25;;;9.90;100.00
68226;BME280;55045;49.410;11.030;2023-03-19T11:37:55;98087.09;;;9.94;100.00
68226;BME280;55045;49.410;11.030;2023-03-19T11:41:06;98084.09;;;9.84;100.00
68226;BME280;55045;49.410;11.030;2023-03-19T11:44:15;98074.69;;;10.00;100.00
68226;BME280;55045;49.410;11.030;2023-03-19T11:47:21;98075.25;;;10.26;100.00
68226;BME280;55045;49.410;11.030;2023-03-19T11:50:39;98064.69;;;10.12;100.00
68226;BME280;55045;49.410;11.030;2023-03-19T11:53:59;98056.81;;;10.32;100.00
68226;BME280;55045;49.410;11.030;2023-03-19T11:57:10;98045.16;;;10.41;100.00
68226;BME280;55045;49.410;11.030;2023-03-19T12:00:23;98025.41;;;10.38;100.00
68226;BME280;55045;49.410;11.030;2023-03-19T12:03:46;98028.00;;;10.55;100.00
68226;BME280;55045;49.410;11.030;2023-03-19T12:07:01;98013.78;;;10.97;100.00
68226;BME280;55045;49.410;11.030;2023-03-19T12:10:27;98005.44;;;10.57;100.00
68226;BME280;55045;49.410;11.030;2023-03-19T12:13:38;98007.66;;;11.15;100.00
68226;BME280;55045;49.410;11.030;2023-03-19T12:16:58;98011.66;;;11.05;100.00
68226;BME280;55045;49.410;11.030;2023-03-19T12:20:18;98007.34;;;11.37;100.00
68226;BME280;55045;49.410;11.030;2023-03-19T12:23:32;97998.31;;;11.60;100.00
68226;BME280;55045;49.410;11.030;2023-03-19T12:26:50;98000.81;;;11.30;100.00
68226;BME280;55045;49.410;11.030;2023-03-19T12:30:05;97987.75;;;11.32;100.00
68226;BME280;55045;49.410;11.030;2023-03-19T12:33:28;97991.34;;;11.29;100.00
68226;BME280;55045;49.410;11.030;2023-03-19T12:36:38;97994.31;;;11.70;100.00
68226;BME280;55045;49.410;11.030;2023-03-19T12:39:49;97997.00;;;11.85;100.00
68226;BME280;55045;49.410;11.030;2023-03-19T12:42:58;98001.31;;;11.86;100.00
68226;BME280;55045;49.410;11.030;2023-03-19T12:46:08;97987.16;;;12.21;100.00
68226;BME280;55045;49.410;11.030;2023-03-19T12:49:15;97995.00;;;11.90;100.00
68226;BME280;55045;49.410;11.030;2023-03-19T12:52:23;97981.41;;;12.16;100.00
68226;BME280;55045;49.410;11.030;2023-03-19T12:55:35;97980.59;;;12.60;100.00
68226;BME280;55045;49.410;11.030;2023-03-19T12:58:50;97977.47;;;12.09;100.00
68226;BME280;55045;49.410;11.030;2023-03-19T13:01:58;97972.25;;;12.09;100.00
68226;BME280;55045;49.410;11.030;2023-03-19T13:05:08;97974.41;;;11.87;100.00
68226;BME280;55045;49.410;11.030;2023-03-19T13:08:28;97969.00;;;12.35;100.00
68226;BME280;55045;49.410;11.030;2023-03-19T13:11:43;97966.47;;;12.20;100.00
68226;BME280;55045;49.410;11.030;2023-03-19T13:14:52;97962.41;;;12.74;100.00
68226;BME280;55045;49.410;11.030;2023-03-19T13:18:04;97963.88;;;12.64;100.00
68226;BME280;55045;49.410;11.030;2023-03-19T13:21:21;97968.03;;;12.66;100.00
68226;BME280;55045;49.410;11.030;2023-03-19T13:24:27;97965.94;;;12.29;100.00
68226;BME280;55045;49.410;11.030;2023-03-19T13:27:32;97954.41;;;12.03;100.00
68226;BME280;55045;49.410;11.030;2023-03-19T13:30:38;97963.22;;;12.16;100.00
68226;BME280;55045;49.410;11.030;2023-03-19T13:33:50;97953.25;;;12.38;100.00
68226;BME280;55045;49.410;11.030;2023-03-19T13:37:00;97956.09;;;12.78;100.00
68226;BME280;55045;49.410;11.030;2023-03-19T13:40:35;97947.09;;;12.39;100.00
68226;BME280;55045;49.410;11.030;2023-03-19T13:43:52;97958.06;;;12.15;100.00
68226;BME280;55045;49.410;11.030;2023-03-19T13:46:59;97942.50;;;12.59;100.00
68226;BME280;55045;49.410;11.030;2023-03-19T13:50:20;97942.16;;;12.79;100.00
68226;BME280;55045;49.410;11.030;2023-03-19T13:53:51;97943.16;;;12.18;100.00
68226;BME280;55045;49.410;11.030;2023-03-19T13:57:03;97937.97;;;12.32;100.00
68226;BME280;55045;49.410;11.030;2023-03-19T14:03:53;97940.78;;;12.44;100.00
68226;BME280;55045;49.410;11.030;2023-03-19T14:07:09;97939.03;;;12.44;100.00
68226;BME280;55045;49.410;11.030;2023-03-19T14:10:18;97929.50;;;12.59;100.00
68226;BME280;55045;49.410;11.030;2023-03-19T14:13:30;97930.56;;;12.26;100.00
68226;BME280;55045;49.410;11.030;2023-03-19T14:16:35;97927.97;;;12.55;100.00
68226;BME280;55045;49.410;11.030;2023-03-19T14:19:41;97930.53;;;12.71;100.00
68226;BME280;55045;49.410;11.030;2023-03-19T14:22:54;97928.56;;;12.60;100.00
68226;BME280;55045;49.410;11.030;2023-03-19T14:26:04;97926.91;;;12.73;100.00
68226;BME280;55045;49.410;11.030;2023-03-19T14:29:12;97913.41;;;12.95;100.00
68226;BME280;55045;49.410;11.030;2023-03-19T14:32:17;97929.97;;;13.08;100.00
68226;BME280;55045;49.410;11.030;2023-03-19T14:35:24;97922.91;;;12.96;100.00
68226;BME280;55045;49.410;11.030;2023-03-19T14:38:34;97926.00;;;12.88;100.00
68226;BME280;55045;49.410;11.030;2023-03-19T14:41:42;97929.13;;;13.08;100.00
68226;BME280;55045;49.410;11.030;2023-03-19T14:49:02;97929.31;;;13.05;100.00
68226;BME280;55045;49.410;11.030;2023-03-19T14:52:16;97923.44;;;13.15;100.00
68226;BME280;55045;49.410;11.030;2023-03-19T14:55:31;97914.09;;;12.98;100.00
68226;BME280;55045;49.410;11.030;2023-03-19T14:58:35;97923.28;;;13.18;100.00
68226;BME280;55045;49.410;11.030;2023-03-19T15:01:40;97920.13;;;12.99;100.00
68226;BME280;55045;49.410;11.030;2023-03-19T15:04:47;97914.81;;;13.15;100.00
68226;BME280;55045;49.410;11.030;2023-03-19T15:07:54;97918.47;;;12.98;100.00
68226;BME280;55045;49.410;11.030;2023-03-19T15:11:12;97920.03;;;13.29;100.00
68226;BME280;55045;49.410;11.030;2023-03-19T15:14:41;97907.19;;;13.26;100.00
68226;BME280;55045;49.410;11.030;2023-03-19T15:17:57;97909.69;;;13.27;100.00
68226;BME280;55045;49.410;11.030;2023-03-19T15:21:08;97902.72;;;13.14;100.00
68226;BME280;55045;49.410;11.030;2023-03-19T15:24:15;97902.81;;;13.26;100.00
68226;BME280;55045;49.410;11.030;2023-03-19T15:27:21;97898.44;;;13.13;100.00
68226;BME280;55045;49.410;11.030;2023-03-19T15:30:25;97901.88;;;13.13;100.00
68226;BME280;55045;49.410;11.030;2023-03-19T15:33:35;97889.50;;;13.17;100.00
68226;BME280;55045;49.410;11.030;2023-03-19T15:36:43;97892.09;;;13.17;100.00
68226;BME280;55045;49.410;11.030;2023-03-19T15:39:50;97895.09;;;13.25;100.00
68226;BME280;55045;49.410;11.030;2023-03-19T15:42:57;97863.59;;;13.30;100.00
68226;BME280;55045;49.410;11.030;2023-03-19T15:46:02;97888.78;;;13.29;100.00
68226;BME280;55045;49.410;11.030;2023-03-19T15:49:09;97889.13;;;13.37;100.00
68226;BME280;55045;49.410;11.030;2023-03-19T15:52:16;97885.13;;;13.17;100.00
68226;BME280;55045;49.410;11.030;2023-03-19T15:55:23;97891.94;;;13.06;100.00
68226;BME280;55045;49.410;11.030;2023-03-19T15:58:30;97886.91;;;13.17;100.00
68226;BME280;55045;49.410;11.030;2023-03-19T16:01:33;97881.19;;;12.97;100.00
68226;BME280;55045;49.410;11.030;2023-03-19T16:04:37;97888.22;;;12.95;100.00
68226;BME280;55045;49.410;11.030;2023-03-19T16:08:01;97870.22;;;12.78;100.00
68226;BME280;55045;49.410;11.030;2023-03-19T16:11:28;97884.53;;;13.00;100.00
68226;BME280;55045;49.410;11.030;2023-03-19T16:14:37;97887.47;;;13.08;100.00
68226;BME280;55045;49.410;11.030;2023-03-19T16:17:42;97895.00;;;13.12;100.00
68226;BME280;55045;49.410;11.030;2023-03-19T16:21:00;97891.28;;;13.02;100.00
68226;BME280;55045;49.410;11.030;2023-03-19T16:24:13;97879.03;;;12.90;100.00
68226;BME280;55045;49.410;11.030;2023-03-19T16:27:20;97893.91;;;12.88;100.00
68226;BME280;55045;49.410;11.030;2023-03-19T16:34:30;97901.50;;;12.77;100.00
68226;BME280;55045;49.410;11.030;2023-03-19T16:37:41;97908.41;;;12.78;100.00